Time;durP1;ratioP1;P1;durP2;ratioP2;P2;SDS_P1;SDS_P2;PMS_P1;PMS_P2;Temp;Humidity;BMP_temperature;BMP_pressure;BME280_temperature;BME280_humidity;BME280_pressure;Samples;Min_cycle;Max_cycle;Signal;HPM_P1;HPM_P2
2022/01/22 00:01:00;;;;;;;6.60;1.75;;;9.80;70.20;;;;;;6159245;23;20018;-75
2022/01/22 00:03:26;;;;;;;9.57;1.50;;;9.80;70.30;;;;;;6157591;23;20088;-75
2022/01/22 00:05:51;;;;;;;7.45;1.55;;;9.90;70.30;;;;;;6159591;23;20407;-76
2022/01/22 00:08:17;;;;;;;5.88;1.63;;;9.90;70.30;;;;;;6159553;23;20018;-75
2022/01/22 00:10:44;;;;;;;3.42;1.13;;;9.90;70.30;;;;;;6159013;23;20028;-75
2022/01/22 00:15:50;;;;;;;6.32;1.60;;;9.90;70.30;;;;;;6159287;23;20025;-75
2022/01/22 00:18:16;;;;;;;3.50;1.20;;;9.80;70.30;;;;;;6159093;23;20312;-77
2022/01/22 00:20:42;;;;;;;5.20;1.17;;;9.90;70.30;;;;;;6158748;23;20013;-76
2022/01/22 00:23:08;;;;;;;7.35;1.70;;;9.90;70.80;;;;;;6158194;23;20014;-76
2022/01/22 00:25:33;;;;;;;5.53;1.50;;;9.90;70.30;;;;;;6158244;23;20033;-77
2022/01/22 00:28:01;;;;;;;3.42;1.13;;;9.90;70.30;;;;;;6158762;23;20025;-77
2022/01/22 00:30:27;;;;;;;3.88;1.20;;;9.90;70.30;;;;;;6158010;23;20032;-75
2022/01/22 00:32:53;;;;;;;8.00;1.77;;;9.90;70.30;;;;;;6157930;23;20302;-76
2022/01/22 00:35:21;;;;;;;7.80;1.30;;;9.90;70.30;;;;;;6157452;23;20032;-77
2022/01/22 00:37:48;;;;;;;5.43;1.42;;;9.90;70.20;;;;;;6157819;23;20422;-76
2022/01/22 00:40:16;;;;;;;6.53;1.60;;;9.90;70.30;;;;;;6159302;23;20332;-75
2022/01/22 00:42:43;;;;;;;5.82;1.35;;;9.90;70.30;;;;;;6157958;23;20160;-76
2022/01/22 00:45:10;;;;;;;5.78;1.08;;;9.90;70.30;;;;;;6157164;23;20296;-78
2022/01/22 00:47:36;;;;;;;5.50;1.50;;;9.90;70.30;;;;;;6158596;23;20096;-77
2022/01/22 00:50:03;;;;;;;6.03;1.42;;;9.90;70.40;;;;;;6132893;23;20438;-77
2022/01/22 00:52:28;;;;;;;6.10;1.20;;;9.90;70.40;;;;;;6156824;23;20025;-77
2022/01/22 00:54:54;;;;;;;5.07;1.20;;;9.90;70.50;;;;;;6156406;23;20427;-77
2022/01/22 00:57:20;;;;;;;3.85;1.42;;;9.90;70.50;;;;;;6157206;23;20025;-77
2022/01/22 00:59:46;;;;;;;6.95;1.38;;;9.90;70.50;;;;;;6156958;23;20017;-75
2022/01/22 01:02:11;;;;;;;5.28;1.20;;;9.90;70.50;;;;;;6155420;23;20022;-75
2022/01/22 01:04:37;;;;;;;5.63;1.27;;;9.90;70.50;;;;;;6157078;23;20119;-75
2022/01/22 01:07:04;;;;;;;4.20;1.30;;;9.90;70.40;;;;;;6156377;23;20063;-77
2022/01/22 01:09:31;;;;;;;7.00;1.55;;;9.90;70.50;;;;;;6157007;23;20027;-76
2022/01/22 01:12:02;;;;;;;3.80;1.05;;;9.90;70.50;;;;;;6156082;23;20026;-76
2022/01/22 01:14:41;;;;;;;5.40;1.00;;;9.90;70.50;;;;;;6157270;23;20027;-77
2022/01/22 01:35:45;;;;;;;3.45;0.73;;;9.90;70.60;;;;;;6155807;23;20033;-77
2022/01/22 01:38:10;;;;;;;3.92;0.90;;;9.90;70.50;;;;;;6155436;23;20500;-75
2022/01/22 01:40:40;;;;;;;5.88;1.23;;;9.90;70.50;;;;;;6157867;23;20013;-77
2022/01/22 01:43:18;;;;;;;2.67;0.80;;;9.90;70.50;;;;;;6156894;23;20052;-75
2022/01/22 01:45:43;;;;;;;6.85;1.35;;;9.90;70.40;;;;;;6157711;23;20104;-76
2022/01/22 01:48:15;;;;;;;4.85;1.00;;;10.00;70.50;;;;;;6155277;23;20293;-78
2022/01/22 01:50:42;;;;;;;4.97;1.20;;;10.00;70.40;;;;;;6105659;23;1123318;-76
2022/01/22 01:55:48;;;;;;;3.95;1.25;;;9.90;70.40;;;;;;6158775;23;20021;-75
2022/01/22 01:58:15;;;;;;;2.85;0.70;;;9.90;70.50;;;;;;6158073;23;20080;-77
2022/01/22 02:00:40;;;;;;;3.67;0.70;;;10.00;70.50;;;;;;6158141;23;20022;-77
2022/01/22 02:03:08;;;;;;;4.47;1.00;;;9.90;70.40;;;;;;6158348;23;20084;-77
2022/01/22 02:05:35;;;;;;;1.83;0.60;;;9.90;70.50;;;;;;6158501;23;20095;-76
2022/01/22 02:08:02;;;;;;;2.30;0.75;;;9.90;70.50;;;;;;6158959;23;20013;-76
2022/01/22 02:10:31;;;;;;;4.82;1.10;;;9.90;70.50;;;;;;6158590;23;20021;-76
2022/01/22 02:14:03;;;;;;;3.28;0.80;;;9.90;70.50;;;;;;6156456;23;20318;-75
2022/01/22 02:24:06;;;;;;;3.55;0.75;;;9.90;70.50;;;;;;6157505;23;20319;-77
2022/01/22 02:26:32;;;;;;;4.00;0.75;;;9.90;70.50;;;;;;6156727;23;20088;-77
2022/01/22 02:28:57;;;;;;;5.07;0.93;;;10.00;71.10;;;;;;6157890;23;20072;-77
2022/01/22 02:36:24;;;;;;;3.75;0.60;;;10.00;70.40;;;;;;6157620;23;20109;-76
2022/01/22 02:41:24;;;;;;;3.00;0.57;;;10.00;70.40;;;;;;6157644;23;20094;-75
2022/01/22 02:43:52;;;;;;;3.05;0.88;;;10.00;70.40;;;;;;6158094;23;20017;-78
2022/01/22 02:46:20;;;;;;;2.25;0.63;;;10.00;70.40;;;;;;6156872;23;20359;-77
2022/01/22 02:48:46;;;;;;;4.45;0.90;;;10.00;70.40;;;;;;6156103;23;20084;-77
2022/01/22 02:51:12;;;;;;;3.38;0.90;;;10.00;70.40;;;;;;6158158;23;20060;-76
2022/01/22 02:53:37;;;;;;;2.50;0.52;;;10.00;70.40;;;;;;6157734;23;20025;-76
2022/01/22 02:56:04;;;;;;;4.07;1.05;;;10.00;70.50;;;;;;6156608;23;20017;-76
2022/01/22 02:58:29;;;;;;;2.70;0.60;;;10.00;70.50;;;;;;6156635;23;20423;-77
2022/01/22 03:00:55;;;;;;;2.30;0.60;;;10.00;70.40;;;;;;6157475;23;20017;-76
2022/01/22 03:03:21;;;;;;;1.27;0.40;;;10.00;70.50;;;;;;6156097;23;20032;-75
2022/01/22 03:05:46;;;;;;;3.30;0.80;;;10.00;70.50;;;;;;6157424;23;20017;-77
2022/01/22 03:08:14;;;;;;;4.63;0.73;;;10.00;70.50;;;;;;6157938;23;20059;-76
2022/01/22 03:10:43;;;;;;;2.50;1.00;;;10.00;70.50;;;;;;6157992;23;20370;-76
2022/01/22 03:18:17;;;;;;;1.77;0.70;;;10.00;70.50;;;;;;6157670;23;20021;-76
2022/01/22 03:21:03;;;;;;;2.88;0.32;;;10.00;70.50;;;;;;6157609;23;20069;-75
2022/01/22 03:29:05;;;;;;;3.72;0.50;;;10.00;70.50;;;;;;6159438;23;19920;-77
2022/01/22 03:31:31;;;;;;;2.38;0.73;;;10.00;70.60;;;;;;6160393;23;20018;-78
2022/01/22 03:33:57;;;;;;;1.75;0.35;;;10.00;70.50;;;;;;6159281;23;20021;-74
2022/01/22 03:36:24;;;;;;;1.77;0.50;;;10.00;70.50;;;;;;6158525;23;20474;-75
2022/01/22 03:38:50;;;;;;;1.33;0.40;;;10.00;70.50;;;;;;6133122;23;20033;-76
2022/01/22 03:41:16;;;;;;;3.25;0.95;;;10.00;70.60;;;;;;6158845;23;20021;-77
2022/01/22 03:43:43;;;;;;;2.28;0.38;;;10.00;70.60;;;;;;6158897;23;20022;-78
2022/01/22 03:46:08;;;;;;;2.45;0.60;;;10.00;70.50;;;;;;6159592;23;20018;-77
2022/01/22 03:48:35;;;;;;;3.10;0.75;;;10.00;70.50;;;;;;6160266;23;20024;-76
2022/01/22 03:51:01;;;;;;;3.20;0.65;;;10.00;70.60;;;;;;6159087;23;20096;-76
2022/01/22 03:53:27;;;;;;;2.85;0.47;;;10.00;70.60;;;;;;6158801;23;20030;-75
2022/01/22 03:56:02;;;;;;;0.90;0.22;;;10.00;70.60;;;;;;6159423;23;20025;-77
2022/01/22 03:58:29;;;;;;;2.05;0.52;;;10.00;70.70;;;;;;6135452;23;20508;-78
2022/01/22 04:01:21;;;;;;;2.10;0.73;;;10.00;70.70;;;;;;6159714;23;20140;-75
2022/01/22 04:03:45;;;;;;;3.08;0.68;;;10.00;70.60;;;;;;6158865;23;20033;-76
2022/01/22 04:08:46;;;;;;;1.77;0.38;;;10.00;70.50;;;;;;6159351;23;20289;-76
2022/01/22 04:11:15;;;;;;;2.05;0.32;;;10.00;70.50;;;;;;6158230;23;20092;-77
2022/01/22 04:13:42;;;;;;;2.65;0.47;;;10.00;70.50;;;;;;6158855;23;20362;-76
2022/01/22 04:16:08;;;;;;;3.42;0.50;;;10.00;70.50;;;;;;6132916;23;20021;-77
2022/01/22 04:27:10;;;;;;;2.50;0.20;;;10.00;70.50;;;;;;6158605;23;20021;-75
2022/01/22 04:29:36;;;;;;;1.63;0.35;;;10.00;70.50;;;;;;6158361;23;20021;-76
2022/01/22 04:32:02;;;;;;;2.67;0.60;;;10.00;70.50;;;;;;6159462;23;20021;-76
2022/01/22 04:34:28;;;;;;;3.17;0.60;;;10.00;70.50;;;;;;6158351;23;20324;-76
2022/01/22 04:36:54;;;;;;;2.92;0.50;;;10.00;70.50;;;;;;6158603;23;20017;-76
2022/01/22 04:39:21;;;;;;;1.65;0.25;;;10.00;70.50;;;;;;6158944;23;20432;-77
2022/01/22 04:41:48;;;;;;;1.75;0.45;;;10.00;70.50;;;;;;6158795;23;20021;-75
2022/01/22 04:44:14;;;;;;;1.85;0.40;;;10.00;70.50;;;;;;6159115;23;20013;-77
2022/01/22 04:49:18;;;;;;;2.20;0.43;;;10.00;70.50;;;;;;6158457;23;20423;-77
2022/01/22 04:57:13;;;;;;;;;;;10.00;70.50;;;;;;6159042;23;20021;-76
2022/01/22 04:59:38;;;;;;;2.13;0.47;;;10.00;70.60;;;;;;6157402;23;19963;-75
2022/01/22 05:02:04;;;;;;;1.27;0.22;;;10.00;70.60;;;;;;6158422;23;20303;-77
2022/01/22 05:04:30;;;;;;;3.08;0.73;;;10.00;70.70;;;;;;6158360;23;20347;-76
2022/01/22 05:06:56;;;;;;;1.33;0.32;;;10.00;70.70;;;;;;6158705;23;20052;-76
2022/01/22 05:09:21;;;;;;;1.00;0.17;;;10.00;70.60;;;;;;6159065;23;20026;-75
2022/01/22 05:11:47;;;;;;;1.73;0.47;;;10.00;70.70;;;;;;6158467;23;20091;-75
2022/01/22 05:14:13;;;;;;;2.97;0.52;;;10.00;70.70;;;;;;6158489;23;20372;-76
2022/01/22 05:16:38;;;;;;;2.20;0.60;;;10.00;70.70;;;;;;6157173;23;20021;-76
2022/01/22 05:19:12;;;;;;;2.42;0.57;;;10.00;70.60;;;;;;6157910;23;20029;-76
2022/01/22 05:21:39;;;;;;;1.98;0.40;;;10.00;70.60;;;;;;6156758;23;20102;-76
2022/01/22 05:24:10;;;;;;;2.03;0.32;;;10.00;70.60;;;;;;6157494;23;20032;-76
2022/01/22 05:36:59;;;;;;;2.08;0.50;;;10.10;70.60;;;;;;6157985;23;20285;-77
2022/01/22 05:39:28;;;;;;;3.40;0.30;;;10.10;70.60;;;;;;6157055;23;20412;-77
2022/01/22 05:41:54;;;;;;;1.90;0.32;;;10.10;70.60;;;;;;6132374;23;20017;-76
2022/01/22 05:44:20;;;;;;;3.28;0.40;;;10.10;70.60;;;;;;6157270;23;20044;-76
2022/01/22 05:46:45;;;;;;;2.53;0.52;;;10.00;70.60;;;;;;6157822;23;20021;-75
2022/01/22 05:49:11;;;;;;;3.28;0.55;;;10.10;70.70;;;;;;6157903;23;20017;-75
2022/01/22 05:51:40;;;;;;;0.90;0.20;;;10.10;70.60;;;;;;6157659;23;20060;-76
2022/01/22 06:02:18;;;;;;;2.92;0.25;;;10.00;70.60;;;;;;6131727;23;20105;-77
2022/01/22 06:04:45;;;;;;;1.00;0.30;;;10.00;70.60;;;;;;6156673;23;20017;-77
2022/01/22 06:07:12;;;;;;;2.47;0.30;;;10.10;70.70;;;;;;6156401;23;20017;-76
2022/01/22 06:09:44;;;;;;;1.63;0.30;;;10.10;70.70;;;;;;6157073;23;20091;-75
2022/01/22 06:14:38;;;;;;;1.20;0.30;;;10.00;70.70;;;;;;6156386;23;20048;-76
2022/01/22 06:17:04;;;;;;;0.80;0.20;;;10.10;70.70;;;;;;6156817;23;20021;-77
2022/01/22 06:19:30;;;;;;;0.88;0.20;;;10.10;70.70;;;;;;6156795;23;20025;-76
2022/01/22 06:21:56;;;;;;;1.15;0.30;;;10.10;70.70;;;;;;6156890;23;20282;-76
2022/01/22 06:24:23;;;;;;;1.48;0.22;;;10.10;70.70;;;;;;6156984;23;20420;-76
2022/01/22 06:26:49;;;;;;;1.52;0.30;;;10.10;70.70;;;;;;6157091;23;20153;-78
2022/01/22 06:29:16;;;;;;;2.83;0.52;;;10.10;70.70;;;;;;6156221;23;20017;-77
2022/01/22 06:31:42;;;;;;;1.23;0.40;;;10.10;70.60;;;;;;6158402;23;20277;-75
2022/01/22 06:34:08;;;;;;;2.22;0.47;;;10.10;70.60;;;;;;6156759;23;20061;-75
2022/01/22 06:36:34;;;;;;;1.67;0.30;;;10.10;70.60;;;;;;6156336;23;20482;-75
2022/01/22 06:39:16;;;;;;;1.65;0.30;;;10.10;70.60;;;;;;6156919;23;20033;-76
2022/01/22 06:41:45;;;;;;;2.35;0.20;;;10.10;70.60;;;;;;6156255;23;20021;-75
2022/01/22 06:44:34;;;;;;;1.13;0.38;;;10.10;70.60;;;;;;6157750;23;20428;-76
2022/01/22 06:46:59;;;;;;;1.42;0.20;;;10.10;70.60;;;;;;6156502;23;20017;-77
2022/01/22 06:49:25;;;;;;;2.28;0.30;;;10.00;70.60;;;;;;6156885;23;20029;-75
2022/01/22 06:51:53;;;;;;;1.65;0.20;;;10.00;70.60;;;;;;6156314;23;20022;-76
2022/01/22 06:54:21;;;;;;;1.25;0.38;;;10.00;70.70;;;;;;6156743;23;20026;-76
2022/01/22 06:56:47;;;;;;;2.65;0.30;;;10.00;70.70;;;;;;6156710;23;20022;-75
2022/01/22 06:59:13;;;;;;;1.63;0.30;;;10.00;70.60;;;;;;6157748;23;20044;-75
2022/01/22 07:01:39;;;;;;;0.63;0.20;;;10.00;70.70;;;;;;6159578;23;20104;-76
2022/01/22 07:04:06;;;;;;;1.58;0.30;;;10.00;70.70;;;;;;6158649;23;20029;-77
2022/01/22 07:06:32;;;;;;;2.08;0.20;;;10.00;70.70;;;;;;6159980;23;20123;-77
2022/01/22 07:08:58;;;;;;;0.30;0.10;;;10.00;70.70;;;;;;6160232;23;20025;-76
2022/01/22 07:11:24;;;;;;;1.85;0.30;;;10.00;70.70;;;;;;6159588;23;20083;-75
2022/01/22 07:13:50;;;;;;;1.63;0.20;;;10.10;70.70;;;;;;6159434;23;20029;-77
2022/01/22 07:16:16;;;;;;;2.00;0.50;;;10.10;70.70;;;;;;6158511;23;20434;-77
2022/01/22 07:18:43;;;;;;;3.78;0.50;;;10.10;70.70;;;;;;6159120;23;20022;-77
2022/01/22 07:21:18;;;;;;;1.83;0.20;;;10.10;70.70;;;;;;6158666;23;20018;-77
2022/01/22 07:26:14;;;;;;;2.63;0.47;;;10.10;70.70;;;;;;6159311;23;20025;-76
2022/01/22 07:28:39;;;;;;;0.75;0.17;;;10.10;70.70;;;;;;6159254;23;20104;-75
2022/01/22 07:31:06;;;;;;;2.35;0.25;;;10.10;70.70;;;;;;6159830;23;20022;-76
2022/01/22 07:33:32;;;;;;;1.00;0.13;;;10.10;70.70;;;;;;6159455;23;20094;-76
2022/01/22 07:35:58;;;;;;;1.38;0.30;;;10.10;70.70;;;;;;6158577;23;20063;-77
2022/01/22 07:38:23;;;;;;;2.40;0.30;;;10.10;70.70;;;;;;6159268;23;20013;-76
2022/01/22 07:40:49;;;;;;;2.80;0.40;;;10.00;70.70;;;;;;6159315;23;20013;-77
2022/01/22 07:43:16;;;;;;;2.28;0.30;;;10.10;70.70;;;;;;6159923;23;20013;-75
2022/01/22 07:45:42;;;;;;;1.73;0.30;;;10.10;70.70;;;;;;6158325;23;20359;-75
2022/01/22 07:48:08;;;;;;;1.80;0.20;;;10.10;70.70;;;;;;6158254;23;20053;-76
2022/01/22 07:50:34;;;;;;;0.95;0.20;;;10.10;70.70;;;;;;6158274;23;20025;-77
2022/01/22 07:53:01;;;;;;;2.17;0.40;;;10.10;70.70;;;;;;6159422;23;20029;-75
2022/01/22 07:55:28;;;;;;;1.80;0.22;;;10.10;70.70;;;;;;6158008;23;20055;-76
2022/01/22 07:57:53;;;;;;;2.95;0.47;;;10.10;70.70;;;;;;6158806;23;20022;-77
2022/01/22 08:00:19;;;;;;;1.50;0.40;;;10.10;70.70;;;;;;6133532;23;20021;-77
2022/01/22 08:02:46;;;;;;;1.65;0.30;;;10.10;70.70;;;;;;6158403;23;20022;-77
2022/01/22 08:05:12;;;;;;;1.13;0.20;;;10.10;70.70;;;;;;6157899;23;20017;-77
2022/01/22 08:07:39;;;;;;;1.38;0.10;;;10.10;70.70;;;;;;6157993;23;20133;-75
2022/01/22 08:10:08;;;;;;;1.23;0.35;;;10.10;70.70;;;;;;6157907;23;20017;-77
2022/01/22 08:12:35;;;;;;;1.77;0.30;;;10.10;70.70;;;;;;6158054;23;20420;-75
2022/01/22 08:15:01;;;;;;;2.22;0.28;;;10.10;70.70;;;;;;6157805;23;20416;-76
2022/01/22 08:17:27;;;;;;;1.15;0.13;;;10.10;70.70;;;;;;6157308;23;20064;-77
2022/01/22 08:19:53;;;;;;;1.15;0.43;;;10.10;70.70;;;;;;6157350;23;20021;-77
2022/01/22 08:22:19;;;;;;;1.45;0.43;;;10.10;70.70;;;;;;6158637;23;20026;-77
2022/01/22 08:24:45;;;;;;;1.95;0.28;;;10.10;71.20;;;;;;6159381;23;20032;-76
2022/01/22 08:29:56;;;;;;;1.58;0.20;;;10.10;70.50;;;;;;6159009;23;20021;-77
2022/01/22 08:38:01;;;;;;;2.63;0.30;;;10.20;70.50;;;;;;6158832;23;20021;-75
2022/01/22 08:40:27;;;;;;;1.85;0.30;;;10.20;70.50;;;;;;6158556;23;20061;-77
2022/01/22 08:42:53;;;;;;;1.98;0.52;;;10.20;70.40;;;;;;6158627;23;20017;-78
2022/01/22 08:45:18;;;;;;;2.35;0.38;;;10.20;70.40;;;;;;6157296;23;20101;-76
2022/01/22 08:47:44;;;;;;;1.10;0.15;;;10.20;70.40;;;;;;6159580;23;20497;-75
2022/01/22 08:50:10;;;;;;;1.40;0.17;;;10.20;70.50;;;;;;6158601;23;20021;-77
2022/01/22 08:52:36;;;;;;;0.68;0.10;;;10.20;70.50;;;;;;6159062;23;20026;-77
2022/01/22 08:55:06;;;;;;;3.47;0.75;;;10.20;70.50;;;;;;6158442;23;20021;-77
2022/01/22 08:57:32;;;;;;;2.22;0.40;;;10.20;70.50;;;;;;6157773;23;20044;-77
2022/01/22 08:59:58;;;;;;;2.15;0.50;;;10.20;70.50;;;;;;6158432;23;20029;-75
2022/01/22 09:02:24;;;;;;;1.25;0.43;;;10.20;70.50;;;;;;6158386;23;20017;-76
2022/01/22 09:04:52;;;;;;;0.93;0.25;;;10.20;70.50;;;;;;6158080;23;20018;-76
2022/01/22 09:07:17;;;;;;;1.77;0.32;;;10.20;70.50;;;;;;6158537;23;20379;-76
2022/01/22 09:09:44;;;;;;;1.17;0.30;;;10.10;70.50;;;;;;6158428;23;20028;-76
2022/01/22 09:12:10;;;;;;;2.42;0.40;;;10.20;70.60;;;;;;6157594;23;20318;-77
2022/01/22 09:14:36;;;;;;;0.60;0.20;;;10.10;70.60;;;;;;6158531;23;20033;-76
2022/01/22 09:17:03;;;;;;;0.95;0.30;;;10.10;70.60;;;;;;6158484;23;20022;-75
2022/01/22 09:19:34;;;;;;;1.45;0.20;;;10.20;70.60;;;;;;6158164;23;20060;-75
2022/01/22 09:22:05;;;;;;;3.35;0.50;;;10.20;70.70;;;;;;6158008;23;20021;-75
2022/01/22 09:24:30;;;;;;;3.72;0.40;;;10.20;71.20;;;;;;6158371;23;20072;-77
2022/01/22 09:26:58;;;;;;;1.45;0.30;;;10.20;70.60;;;;;;6157242;23;20017;-78
2022/01/22 09:29:24;;;;;;;1.45;0.35;;;10.20;70.60;;;;;;6157068;23;20024;-76
2022/01/22 09:31:50;;;;;;;1.15;0.40;;;10.20;70.60;;;;;;6158199;23;20025;-78
2022/01/22 09:34:16;;;;;;;2.33;0.20;;;10.20;70.60;;;;;;6156788;23;20053;-77
2022/01/22 09:36:42;;;;;;;2.95;0.30;;;10.20;70.70;;;;;;6158319;23;20025;-76
2022/01/22 09:39:08;;;;;;;2.83;0.32;;;10.10;70.70;;;;;;6157226;23;20477;-75
2022/01/22 09:41:34;;;;;;;1.17;0.52;;;10.10;70.70;;;;;;6157046;23;20049;-77
2022/01/22 09:44:01;;;;;;;1.58;0.30;;;10.10;70.80;;;;;;6156845;23;20021;-77
2022/01/22 09:46:27;;;;;;;2.45;0.50;;;10.10;70.80;;;;;;6158812;23;20010;-76
2022/01/22 09:48:54;;;;;;;3.80;0.77;;;10.10;70.80;;;;;;6157201;23;20032;-78
2022/01/22 09:51:20;;;;;;;2.08;0.40;;;10.10;70.80;;;;;;6158321;23;20017;-77
2022/01/22 09:53:46;;;;;;;0.65;0.20;;;10.10;70.80;;;;;;6158846;23;20029;-78
2022/01/22 09:56:13;;;;;;;1.83;0.28;;;10.10;70.70;;;;;;6157995;23;20092;-76
2022/01/22 09:58:39;;;;;;;1.98;0.50;;;10.20;71.30;;;;;;6158016;23;20017;-77
2022/01/22 10:01:18;;;;;;;2.58;0.50;;;10.20;70.70;;;;;;6157956;23;20396;-77
2022/01/22 10:03:44;;;;;;;2.40;0.60;;;10.20;70.60;;;;;;6158381;23;20021;-77
2022/01/22 10:06:19;;;;;;;1.33;0.32;;;10.20;70.60;;;;;;6158101;23;20380;-76
2022/01/22 10:08:45;;;;;;;3.30;0.50;;;10.20;70.60;;;;;;6158056;23;20057;-75
2022/01/22 10:11:21;;;;;;;3.53;0.50;;;10.20;70.60;;;;;;6157585;23;20060;-75
2022/01/22 10:13:50;;;;;;;2.13;0.40;;;10.20;70.70;;;;;;6157126;23;20028;-76
2022/01/22 10:16:26;;;;;;;4.25;0.50;;;10.20;70.70;;;;;;6157336;23;20029;-78
2022/01/22 10:19:12;;;;;;;2.83;0.60;;;10.20;70.80;;;;;;6158090;23;20033;-75
2022/01/22 10:21:43;;;;;;;1.58;0.22;;;10.20;70.80;;;;;;6157506;23;20030;-76
2022/01/22 10:24:30;;;;;;;4.25;0.47;;;10.20;70.80;;;;;;6157506;23;20018;-77
2022/01/22 10:27:33;;;;;;;2.35;0.40;;;10.20;70.80;;;;;;6157087;23;20430;-77
2022/01/22 10:30:02;;;;;;;0.95;0.50;;;10.20;70.80;;;;;;6157827;23;20033;-75
2022/01/22 10:32:46;;;;;;;1.40;0.30;;;10.20;70.80;;;;;;6156690;23;20427;-77
2022/01/22 10:35:15;;;;;;;2.05;0.30;;;10.20;70.90;;;;;;6159140;23;20021;-77
2022/01/22 10:37:41;;;;;;;2.30;0.68;;;10.20;70.90;;;;;;6159941;23;20021;-77
2022/01/22 10:40:27;;;;;;;2.80;0.40;;;10.20;70.90;;;;;;6134301;23;20021;-77
2022/01/22 10:43:34;;;;;;;1.75;0.57;;;10.20;70.80;;;;;;6159430;23;20470;-76
2022/01/22 10:46:18;;;;;;;2.92;0.47;;;10.20;70.90;;;;;;6158794;23;20419;-77
2022/01/22 10:48:53;;;;;;;1.67;0.30;;;10.20;70.90;;;;;;6159558;23;20017;-77
2022/01/22 10:51:20;;;;;;;2.45;0.57;;;10.20;70.80;;;;;;6160165;23;20331;-75
2022/01/22 10:53:52;;;;;;;1.05;0.50;;;10.20;70.80;;;;;;6158595;23;20477;-76
2022/01/22 10:56:20;;;;;;;2.25;0.30;;;10.20;70.90;;;;;;6159301;23;20018;-76
2022/01/22 10:59:02;;;;;;;2.03;0.47;;;10.20;70.90;;;;;;6159829;23;20025;-77
2022/01/22 11:01:38;;;;;;;1.42;0.30;;;10.20;70.90;;;;;;6159928;23;20486;-76
2022/01/22 11:04:08;;;;;;;3.35;0.60;;;10.20;70.90;;;;;;6159678;23;20123;-75
2022/01/22 11:06:34;;;;;;;3.65;0.52;;;10.20;71.00;;;;;;6159989;23;20411;-75
2022/01/22 11:09:00;;;;;;;0.93;0.20;;;10.20;71.00;;;;;;6133906;23;20029;-76
2022/01/22 11:11:26;;;;;;;4.25;0.30;;;10.20;71.00;;;;;;6159546;23;20319;-76
2022/01/22 11:13:52;;;;;;;0.55;0.15;;;10.20;71.00;;;;;;6159583;23;20434;-75
2022/01/22 11:16:18;;;;;;;4.15;0.57;;;10.20;70.90;;;;;;6160104;23;20377;-75
2022/01/22 11:18:47;;;;;;;1.92;0.30;;;10.20;70.90;;;;;;6159695;23;20021;-76
2022/01/22 11:21:16;;;;;;;3.42;0.60;;;10.20;70.90;;;;;;6159289;23;20088;-76
2022/01/22 11:23:42;;;;;;;2.40;0.40;;;10.20;70.80;;;;;;6159765;23;20356;-76
2022/01/22 11:26:09;;;;;;;3.20;0.30;;;10.20;70.80;;;;;;6159412;23;20107;-77
2022/01/22 11:28:38;;;;;;;2.17;0.32;;;10.20;70.80;;;;;;6159746;23;20297;-76
2022/01/22 11:31:05;;;;;;;2.42;0.30;;;10.20;70.80;;;;;;6159382;23;20009;-75
2022/01/22 11:33:34;;;;;;;2.72;0.30;;;10.20;70.80;;;;;;6159655;23;20308;-77
2022/01/22 11:36:14;;;;;;;2.92;0.57;;;10.20;70.80;;;;;;6157830;23;20155;-75
2022/01/22 11:38:43;;;;;;;4.20;0.60;;;10.20;70.80;;;;;;6159262;23;20029;-75
2022/01/22 11:41:14;;;;;;;2.85;0.60;;;10.20;70.80;;;;;;6159742;23;20024;-77
2022/01/22 11:44:04;;;;;;;1.42;0.30;;;10.20;70.80;;;;;;6159945;23;20253;-77
2022/01/22 11:46:35;;;;;;;2.40;0.47;;;10.20;70.70;;;;;;6159586;23;20029;-77
2022/01/22 11:49:17;;;;;;;2.80;0.73;;;10.20;70.70;;;;;;6159895;23;20048;-77
2022/01/22 11:51:49;;;;;;;2.72;0.65;;;10.30;70.80;;;;;;6157925;23;20390;-76
2022/01/22 11:54:16;;;;;;;1.83;0.52;;;10.30;70.70;;;;;;6159260;23;20363;-77
2022/01/22 11:56:46;;;;;;;2.15;0.57;;;10.30;70.70;;;;;;6159403;23;20335;-78
2022/01/22 11:59:12;;;;;;;1.48;0.45;;;10.20;70.70;;;;;;6159274;23;20018;-77
2022/01/22 12:01:38;;;;;;;2.65;0.65;;;10.30;70.80;;;;;;6157867;23;20033;-77
2022/01/22 12:04:08;;;;;;;2.85;0.43;;;10.20;70.70;;;;;;6158993;23;20296;-77
2022/01/22 12:06:37;;;;;;;2.08;0.38;;;10.30;70.80;;;;;;6159959;23;20018;-77
2022/01/22 12:09:13;;;;;;;1.40;0.50;;;10.30;70.80;;;;;;6158998;23;20026;-76
2022/01/22 12:14:50;;;;;;;2.10;0.45;;;10.20;70.80;;;;;;6157761;23;20427;-77
2022/01/22 12:17:25;;;;;;;2.65;0.45;;;10.30;70.80;;;;;;6159727;23;20056;-78
2022/01/22 12:22:35;;;;;;;1.83;0.55;;;10.20;70.80;;;;;;6159486;23;20104;-75
2022/01/22 12:25:08;;;;;;;2.38;0.50;;;10.20;70.80;;;;;;6158945;23;20104;-77
2022/01/22 12:27:47;;;;;;;2.67;0.43;;;10.20;70.80;;;;;;6158704;23;20431;-77
2022/01/22 12:30:15;;;;;;;3.33;0.30;;;10.30;70.80;;;;;;6158872;23;20108;-78
2022/01/22 12:32:49;;;;;;;1.75;0.32;;;10.30;70.80;;;;;;6157266;23;20017;-76
2022/01/22 12:35:17;;;;;;;;;;;10.20;70.80;;;;;;6157830;23;20021;-78
2022/01/22 12:37:47;;;;;;;1.67;0.22;;;10.30;70.80;;;;;;6158688;23;20026;-75
2022/01/22 12:40:23;;;;;;;2.55;0.32;;;10.20;70.80;;;;;;6158018;23;20045;-77
2022/01/22 12:42:56;;;;;;;3.00;0.55;;;10.30;70.90;;;;;;6133325;23;20017;-77
2022/01/22 12:45:24;;;;;;;2.80;0.40;;;10.30;70.90;;;;;;6158589;23;20021;-76
2022/01/22 12:47:50;;;;;;;1.98;0.50;;;10.30;70.90;;;;;;6159250;23;20087;-77
2022/01/22 12:50:24;;;;;;;1.83;0.28;;;10.30;70.90;;;;;;6158563;23;20021;-77
2022/01/22 12:52:51;;;;;;;;;;;10.30;70.80;;;;;;6158439;23;20055;-75
2022/01/22 12:55:22;;;;;;;2.05;0.30;;;10.20;70.70;;;;;;6158783;23;19920;-75
2022/01/22 12:57:48;;;;;;;1.52;0.40;;;10.30;70.90;;;;;;6158064;23;20025;-76
2022/01/22 13:00:17;;;;;;;1.63;0.30;;;10.30;70.90;;;;;;6158557;23;20064;-76
2022/01/22 13:02:56;;;;;;;2.92;0.70;;;10.30;70.90;;;;;;6159195;23;20347;-76
2022/01/22 13:05:24;;;;;;;1.92;0.60;;;10.30;70.90;;;;;;6157834;23;20320;-76
2022/01/22 13:07:55;;;;;;;0.50;0.10;;;10.30;70.90;;;;;;6158542;23;20033;-77
2022/01/22 13:10:32;;;;;;;1.65;0.30;;;10.20;70.80;;;;;;6158406;23;20091;-76
2022/01/22 13:12:58;;;;;;;1.77;0.30;;;10.20;70.80;;;;;;6158079;23;20372;-76
2022/01/22 13:15:26;;;;;;;1.80;0.30;;;10.30;70.90;;;;;;6133709;23;20036;-78
2022/01/22 13:17:58;;;;;;;1.38;0.40;;;10.30;71.50;;;;;;6158740;23;20092;-77
2022/01/22 13:20:26;;;;;;;1.83;0.50;;;10.30;70.90;;;;;;6158502;23;20017;-75
2022/01/22 13:22:53;;;;;;;1.08;0.40;;;10.30;70.90;;;;;;6157948;23;20100;-78
2022/01/22 13:25:20;;;;;;;1.08;0.30;;;10.30;70.90;;;;;;6158401;23;20018;-75
2022/01/22 13:28:10;;;;;;;2.78;0.63;;;10.30;70.80;;;;;;6158434;23;20443;-77
2022/01/22 13:30:43;;;;;;;2.75;0.38;;;10.30;70.80;;;;;;6158407;23;20017;-78
2022/01/22 13:33:25;;;;;;;1.25;0.30;;;10.30;70.80;;;;;;6158198;23;20092;-77
2022/01/22 13:36:08;;;;;;;2.15;0.38;;;10.30;70.80;;;;;;6158810;23;20026;-75
2022/01/22 13:49:41;;;;;;;1.05;0.30;;;10.30;70.70;;;;;;6158041;23;20055;-77
2022/01/22 13:52:12;;;;;;;1.30;0.30;;;10.30;70.70;;;;;;6157594;23;20048;-76
2022/01/22 13:54:52;;;;;;;1.90;0.43;;;10.30;70.70;;;;;;6158051;23;20033;-75
2022/01/22 13:57:23;;;;;;;1.85;0.25;;;10.30;70.80;;;;;;6158401;23;20316;-76
2022/01/22 13:59:52;;;;;;;1.35;0.20;;;10.30;70.70;;;;;;6157753;23;20037;-78
2022/01/22 14:04:55;;;;;;;2.20;0.30;;;10.30;70.70;;;;;;6157130;23;20030;-76
2022/01/22 14:07:33;;;;;;;1.38;0.30;;;10.40;70.90;;;;;;6158428;23;20025;-76
2022/01/22 14:10:07;;;;;;;2.67;0.32;;;10.30;70.80;;;;;;6157952;23;20037;-76
2022/01/22 14:12:41;;;;;;;4.40;0.80;;;10.30;70.80;;;;;;6158012;23;20049;-75
2022/01/22 14:15:13;;;;;;;2.47;0.68;;;10.30;70.80;;;;;;6157528;23;20027;-76
2022/01/22 14:20:47;;;;;;;0.85;0.20;;;10.30;70.80;;;;;;6158875;23;20116;-75
2022/01/22 14:23:18;;;;;;;1.05;0.30;;;10.30;70.80;;;;;;6158039;23;20022;-75
2022/01/22 14:26:05;;;;;;;1.77;0.30;;;10.30;70.80;;;;;;6158605;23;20037;-76
2022/01/22 14:28:45;;;;;;;2.35;0.50;;;10.30;70.80;;;;;;6157891;23;20025;-77
2022/01/22 14:31:53;;;;;;;1.85;0.30;;;10.40;70.80;;;;;;6157628;23;20427;-77
2022/01/22 14:34:33;;;;;;;1.63;0.30;;;10.40;70.80;;;;;;6158409;23;20032;-77
2022/01/22 14:37:01;;;;;;;1.10;0.28;;;10.40;70.80;;;;;;6157956;23;20089;-76
2022/01/22 14:45:26;;;;;;;2.08;0.30;;;10.40;70.80;;;;;;6157130;23;20482;-76
2022/01/22 14:47:54;;;;;;;1.92;0.60;;;10.40;70.80;;;;;;6156274;23;20021;-76
2022/01/22 14:50:21;;;;;;;0.93;0.20;;;10.40;70.70;;;;;;6157706;23;20021;-77
2022/01/22 14:52:47;;;;;;;1.77;0.55;;;10.40;70.80;;;;;;6157805;23;20084;-77
2022/01/22 14:55:13;;;;;;;2.55;0.60;;;10.40;70.80;;;;;;6158426;23;20024;-75
2022/01/22 14:57:41;;;;;;;1.17;0.25;;;10.40;70.80;;;;;;6156860;23;20014;-78
2022/01/22 15:00:15;;;;;;;2.22;0.40;;;10.40;70.90;;;;;;6157736;23;20088;-77
2022/01/22 15:02:42;;;;;;;2.70;0.65;;;10.40;70.90;;;;;;6157275;23;20092;-77
2022/01/22 15:05:11;;;;;;;2.15;0.25;;;10.40;70.90;;;;;;6156613;23;20084;-76
2022/01/22 15:07:38;;;;;;;1.10;0.30;;;10.40;70.90;;;;;;6156262;23;20022;-77